sensor_id;sensor_type;location;lat;lon;timestamp;pressure;altitude;pressure_sealevel;temperature;humidity
18323;BME280;9287;49.456;11.064;2023-02-03T00:02:26;99105.09;;;5.29;100.00
18323;BME280;9287;49.456;11.064;2023-02-03T00:04:54;99118.41;;;5.25;100.00
18323;BME280;9287;49.456;11.064;2023-02-03T00:07:22;99120.06;;;5.21;100.00
18323;BME280;9287;49.456;11.064;2023-02-03T00:09:50;99123.06;;;5.20;100.00
18323;BME280;9287;49.456;11.064;2023-02-03T00:12:19;99121.50;;;5.19;100.00
18323;BME280;9287;49.456;11.064;2023-02-03T00:14:46;99113.41;;;5.14;100.00
18323;BME280;9287;49.456;11.064;2023-02-03T00:17:14;99113.47;;;5.09;100.00
18323;BME280;9287;49.456;11.064;2023-02-03T00:19:42;99109.72;;;5.05;100.00
18323;BME280;9287;49.456;11.064;2023-02-03T00:22:09;99122.72;;;5.03;100.00
18323;BME280;9287;49.456;11.064;2023-02-03T00:24:37;99120.56;;;5.05;100.00
18323;BME280;9287;49.456;11.064;2023-02-03T00:27:05;99125.16;;;5.04;100.00
18323;BME280;9287;49.456;11.064;2023-02-03T00:29:34;99130.81;;;5.08;100.00
18323;BME280;9287;49.456;11.064;2023-02-03T00:32:02;99126.56;;;5.02;100.00
18323;BME280;9287;49.456;11.064;2023-02-03T00:34:30;99125.53;;;4.98;100.00
18323;BME280;9287;49.456;11.064;2023-02-03T00:36:58;99130.13;;;4.97;100.00
18323;BME280;9287;49.456;11.064;2023-02-03T00:39:26;99128.16;;;5.03;100.00
18323;BME280;9287;49.456;11.064;2023-02-03T00:41:53;99125.75;;;5.01;100.00
18323;BME280;9287;49.456;11.064;2023-02-03T00:44:21;99123.91;;;4.97;100.00
18323;BME280;9287;49.456;11.064;2023-02-03T00:46:50;99128.50;;;4.96;100.00
18323;BME280;9287;49.456;11.064;2023-02-03T00:49:18;99125.84;;;4.91;100.00
18323;BME280;9287;49.456;11.064;2023-02-03T00:51:45;99129.31;;;4.97;100.00
18323;BME280;9287;49.456;11.064;2023-02-03T00:54:13;99114.97;;;4.96;100.00
18323;BME280;9287;49.456;11.064;2023-02-03T00:56:41;99119.06;;;4.94;100.00
18323;BME280;9287;49.456;11.064;2023-02-03T00:59:09;99119.59;;;4.96;100.00
18323;BME280;9287;49.456;11.064;2023-02-03T01:01:36;99117.97;;;4.95;100.00
18323;BME280;9287;49.456;11.064;2023-02-03T01:04:05;99126.09;;;4.95;100.00
18323;BME280;9287;49.456;11.064;2023-02-03T01:06:33;99127.13;;;4.99;100.00
18323;BME280;9287;49.456;11.064;2023-02-03T01:09:01;99130.13;;;4.97;100.00
18323;BME280;9287;49.456;11.064;2023-02-03T01:11:29;99129.03;;;4.98;100.00
18323;BME280;9287;49.456;11.064;2023-02-03T01:13:58;99130.13;;;4.97;100.00
18323;BME280;9287;49.456;11.064;2023-02-03T01:16:28;99129.59;;;4.95;100.00
18323;BME280;9287;49.456;11.064;2023-02-03T01:18:57;99136.34;;;4.98;100.00
18323;BME280;9287;49.456;11.064;2023-02-03T01:21:26;99131.50;;;4.95;100.00
18323;BME280;9287;49.456;11.064;2023-02-03T01:23:54;99134.50;;;4.93;100.00
18323;BME280;9287;49.456;11.064;2023-02-03T01:26:22;99116.63;;;4.92;100.00
18323;BME280;9287;49.456;11.064;2023-02-03T01:28:50;99126.66;;;4.92;100.00
18323;BME280;9287;49.456;11.064;2023-02-03T01:31:20;99135.31;;;4.94;100.00
18323;BME280;9287;49.456;11.064;2023-02-03T01:33:50;99131.78;;;4.93;100.00
18323;BME280;9287;49.456;11.064;2023-02-03T01:36:21;99127.69;;;4.96;100.00
18323;BME280;9287;49.456;11.064;2023-02-03T01:38:50;99120.69;;;4.95;100.00
18323;BME280;9287;49.456;11.064;2023-02-03T01:41:20;99122.28;;;4.96;100.00
18323;BME280;9287;49.456;11.064;2023-02-03T01:43:49;99122.28;;;4.96;100.00
18323;BME280;9287;49.456;11.064;2023-02-03T01:46:27;99115.78;;;4.97;100.00
18323;BME280;9287;49.456;11.064;2023-02-03T01:49:00;99114.16;;;4.96;100.00
18323;BME280;9287;49.456;11.064;2023-02-03T01:51:31;99110.09;;;4.98;100.00
18323;BME280;9287;49.456;11.064;2023-02-03T01:54:00;99108.72;;;5.01;100.00
18323;BME280;9287;49.456;11.064;2023-02-03T01:56:31;99087.06;;;5.01;100.00
18323;BME280;9287;49.456;11.064;2023-02-03T01:59:01;99093.47;;;5.05;100.00
18323;BME280;9287;49.456;11.064;2023-02-03T02:01:30;99087.06;;;5.01;100.00
18323;BME280;9287;49.456;11.064;2023-02-03T02:04:00;99079.88;;;5.10;100.00
18323;BME280;9287;49.456;11.064;2023-02-03T02:06:30;99060.34;;;5.13;100.00
18323;BME280;9287;49.456;11.064;2023-02-03T02:08:59;99055.47;;;5.15;100.00
18323;BME280;9287;49.456;11.064;2023-02-03T02:11:28;99059.22;;;5.19;100.00
18323;BME280;9287;49.456;11.064;2023-02-03T02:13:57;99047.84;;;5.17;100.00
18323;BME280;9287;49.456;11.064;2023-02-03T02:16:36;99035.13;;;5.17;100.00
18323;BME280;9287;49.456;11.064;2023-02-03T02:19:33;99033.13;;;5.23;100.00
18323;BME280;9287;49.456;11.064;2023-02-03T02:22:08;99045.06;;;5.22;100.00
18323;BME280;9287;49.456;11.064;2023-02-03T02:25:07;99042.66;;;5.20;100.00
18323;BME280;9287;49.456;11.064;2023-02-03T02:30:42;99052.59;;;5.25;100.00
18323;BME280;9287;49.456;11.064;2023-02-03T02:33:25;99049.31;;;5.28;100.00
18323;BME280;9287;49.456;11.064;2023-02-03T02:36:06;99050.66;;;5.31;100.00
18323;BME280;9287;49.456;11.064;2023-02-03T02:38:44;99048.75;;;5.31;100.00
18323;BME280;9287;49.456;11.064;2023-02-03T02:41:18;99055.78;;;5.32;100.00
18323;BME280;9287;49.456;11.064;2023-02-03T02:43:56;99053.59;;;5.34;100.00
18323;BME280;9287;49.456;11.064;2023-02-03T02:46:30;99047.56;;;5.37;100.00
18323;BME280;9287;49.456;11.064;2023-02-03T02:49:02;99056.81;;;5.36;100.00
18323;BME280;9287;49.456;11.064;2023-02-03T02:51:32;99054.59;;;5.38;100.00
18323;BME280;9287;49.456;11.064;2023-02-03T02:54:03;99060.00;;;5.38;100.00
18323;BME280;9287;49.456;11.064;2023-02-03T02:56:33;99054.59;;;5.38;100.00
18323;BME280;9287;49.456;11.064;2023-02-03T02:59:03;99062.66;;;5.43;100.00
18323;BME280;9287;49.456;11.064;2023-02-03T03:01:31;99062.66;;;5.43;100.00
18323;BME280;9287;49.456;11.064;2023-02-03T03:04:04;99055.63;;;5.42;100.00
18323;BME280;9287;49.456;11.064;2023-02-03T03:06:35;99058.84;;;5.44;100.00
18323;BME280;9287;49.456;11.064;2023-02-03T03:09:08;99053.44;;;5.44;100.00
18323;BME280;9287;49.456;11.064;2023-02-03T03:11:40;99080.53;;;5.44;100.00
18323;BME280;9287;49.456;11.064;2023-02-03T03:14:11;99064.56;;;5.43;100.00
18323;BME280;9287;49.456;11.064;2023-02-03T03:16:45;99049.78;;;5.35;100.00
18323;BME280;9287;49.456;11.064;2023-02-03T03:19:18;99072.03;;;5.32;100.00
18323;BME280;9287;49.456;11.064;2023-02-03T03:21:49;99076.41;;;5.28;100.00
18323;BME280;9287;49.456;11.064;2023-02-03T03:24:23;99072.59;;;5.29;100.00
18323;BME280;9287;49.456;11.064;2023-02-03T03:26:54;99059.06;;;5.29;100.00
18323;BME280;9287;49.456;11.064;2023-02-03T03:29:27;99064.94;;;5.36;100.00
18323;BME280;9287;49.456;11.064;2023-02-03T03:31:57;99049.97;;;5.39;100.00
18323;BME280;9287;49.456;11.064;2023-02-03T03:34:27;99056.19;;;5.39;100.00
18323;BME280;9287;49.456;11.064;2023-02-03T03:37:00;99070.50;;;5.45;100.00
18323;BME280;9287;49.456;11.064;2023-02-03T03:39:34;99083.75;;;5.46;100.00
18323;BME280;9287;49.456;11.064;2023-02-03T03:42:08;99083.16;;;5.49;100.00
18323;BME280;9287;49.456;11.064;2023-02-03T03:44:40;99064.91;;;5.55;100.00
18323;BME280;9287;49.456;11.064;2023-02-03T03:47:11;99081.97;;;5.55;100.00
18323;BME280;9287;49.456;11.064;2023-02-03T03:49:44;99093.63;;;5.56;100.00
18323;BME280;9287;49.456;11.064;2023-02-03T03:52:15;99086.41;;;5.51;100.00
18323;BME280;9287;49.456;11.064;2023-02-03T03:54:46;99094.44;;;5.56;100.00
18323;BME280;9287;49.456;11.064;2023-02-03T03:57:17;99082.78;;;5.56;100.00
18323;BME280;9287;49.456;11.064;2023-02-03T03:59:47;99079.28;;;5.55;100.00
18323;BME280;9287;49.456;11.064;2023-02-03T04:02:17;99076.78;;;5.59;100.00
18323;BME280;9287;49.456;11.064;2023-02-03T04:04:48;99071.38;;;5.59;100.00
18323;BME280;9287;49.456;11.064;2023-02-03T04:07:17;99065.16;;;5.58;100.00
18323;BME280;9287;49.456;11.064;2023-02-03T04:09:45;99062.16;;;5.60;100.00
18323;BME280;9287;49.456;11.064;2023-02-03T04:12:21;99052.09;;;5.60;100.00
18323;BME280;9287;49.456;11.064;2023-02-03T04:14:49;99068.94;;;5.57;100.00
18323;BME280;9287;49.456;11.064;2023-02-03T04:17:17;99069.41;;;5.65;100.00
18323;BME280;9287;49.456;11.064;2023-02-03T04:19:47;99065.59;;;5.66;100.00
18323;BME280;9287;49.456;11.064;2023-02-03T04:22:15;99054.75;;;5.66;100.00
18323;BME280;9287;49.456;11.064;2023-02-03T04:24:42;99041.28;;;5.60;100.00
18323;BME280;9287;49.456;11.064;2023-02-03T04:27:10;99040.25;;;5.56;100.00
18323;BME280;9287;49.456;11.064;2023-02-03T04:29:38;99039.66;;;5.59;100.00
18323;BME280;9287;49.456;11.064;2023-02-03T04:32:05;99044.50;;;5.63;100.00
18323;BME280;9287;49.456;11.064;2023-02-03T04:34:33;99046.13;;;5.64;100.00
18323;BME280;9287;49.456;11.064;2023-02-03T04:37:02;99039.66;;;5.59;100.00
18323;BME280;9287;49.456;11.064;2023-02-03T04:39:30;99030.06;;;5.67;100.00
18323;BME280;9287;49.456;11.064;2023-02-03T04:41:57;99024.44;;;5.64;100.00
18323;BME280;9287;49.456;11.064;2023-02-03T04:44:27;99033.13;;;5.60;100.00
18323;BME280;9287;49.456;11.064;2023-02-03T04:46:55;99019.00;;;5.64;100.00
18323;BME280;9287;49.456;11.064;2023-02-03T04:49:22;99019.81;;;5.64;100.00
18323;BME280;9287;49.456;11.064;2023-02-03T04:51:50;99019.00;;;5.64;100.00
18323;BME280;9287;49.456;11.064;2023-02-03T04:54:19;99013.59;;;5.64;100.00
18323;BME280;9287;49.456;11.064;2023-02-03T04:56:47;99008.75;;;5.60;100.00
18323;BME280;9287;49.456;11.064;2023-02-03T04:59:14;99019.81;;;5.64;100.00
18323;BME280;9287;49.456;11.064;2023-02-03T05:01:42;99016.81;;;5.66;100.00
18323;BME280;9287;49.456;11.064;2023-02-03T05:04:10;99020.41;;;5.61;100.00
18323;BME280;9287;49.456;11.064;2023-02-03T05:06:37;99027.22;;;5.58;100.00
18323;BME280;9287;49.456;11.064;2023-02-03T05:09:05;99035.84;;;5.60;100.00
18323;BME280;9287;49.456;11.064;2023-02-03T05:11:35;99041.34;;;5.55;100.00
18323;BME280;9287;49.456;11.064;2023-02-03T05:14:03;99024.22;;;5.60;100.00
18323;BME280;9287;49.456;11.064;2023-02-03T05:16:30;99021.50;;;5.60;100.00
18323;BME280;9287;49.456;11.064;2023-02-03T05:18:58;99028.25;;;5.63;100.00
18323;BME280;9287;49.456;11.064;2023-02-03T05:21:26;99030.38;;;5.66;100.00
18323;BME280;9287;49.456;11.064;2023-02-03T05:23:53;99014.91;;;5.66;100.00
18323;BME280;9287;49.456;11.064;2023-02-03T05:26:21;99046.63;;;5.66;100.00
18323;BME280;9287;49.456;11.064;2023-02-03T05:28:50;99049.91;;;5.63;100.00
18323;BME280;9287;49.456;11.064;2023-02-03T05:31:20;99045.31;;;5.63;100.00
18323;BME280;9287;49.456;11.064;2023-02-03T05:33:48;99052.63;;;5.63;100.00
18323;BME280;9287;49.456;11.064;2023-02-03T05:36:15;99052.91;;;5.61;100.00
18323;BME280;9287;49.456;11.064;2023-02-03T05:38:43;99033.66;;;5.63;100.00
18323;BME280;9287;49.456;11.064;2023-02-03T05:41:11;99045.00;;;5.65;100.00
18323;BME280;9287;49.456;11.064;2023-02-03T05:43:58;99050.50;;;5.59;100.00
18323;BME280;9287;49.456;11.064;2023-02-03T05:46:26;99066.19;;;5.63;100.00
18323;BME280;9287;49.456;11.064;2023-02-03T05:48:54;99043.09;;;5.65;100.00
18323;BME280;9287;49.456;11.064;2023-02-03T05:51:21;99053.13;;;5.65;100.00
18323;BME280;9287;49.456;11.064;2023-02-03T05:53:50;99050.72;;;5.63;100.00
18323;BME280;9287;49.456;11.064;2023-02-03T05:56:19;99050.50;;;5.59;100.00
18323;BME280;9287;49.456;11.064;2023-02-03T05:58:46;99041.84;;;5.57;100.00
18323;BME280;9287;49.456;11.064;2023-02-03T06:01:18;99044.78;;;5.61;100.00
18323;BME280;9287;49.456;11.064;2023-02-03T06:03:46;99044.50;;;5.63;100.00
18323;BME280;9287;49.456;11.064;2023-02-03T06:06:14;99029.34;;;5.62;100.00
18323;BME280;9287;49.456;11.064;2023-02-03T06:08:43;99026.63;;;5.62;100.00
18323;BME280;9287;49.456;11.064;2023-02-03T06:11:11;99028.25;;;5.63;100.00
18323;BME280;9287;49.456;11.064;2023-02-03T06:13:38;99010.38;;;5.62;100.00
18323;BME280;9287;49.456;11.064;2023-02-03T06:16:07;98984.88;;;5.63;100.00
18323;BME280;9287;49.456;11.064;2023-02-03T06:18:36;98989.50;;;5.62;100.00
18323;BME280;9287;49.456;11.064;2023-02-03T06:21:04;98986.06;;;5.56;100.00
18323;BME280;9287;49.456;11.064;2023-02-03T06:23:32;98992.50;;;5.60;100.00
18323;BME280;9287;49.456;11.064;2023-02-03T06:25:59;99000.13;;;5.58;100.00
18323;BME280;9287;49.456;11.064;2023-02-03T06:28:27;98987.88;;;5.61;100.00
18323;BME280;9287;49.456;11.064;2023-02-03T06:30:55;98989.84;;;5.55;100.00
18323;BME280;9287;49.456;11.064;2023-02-03T06:33:23;98990.47;;;5.52;100.00
18323;BME280;9287;49.456;11.064;2023-02-03T06:35:52;98990.47;;;5.52;100.00
18323;BME280;9287;49.456;11.064;2023-02-03T06:38:20;98979.63;;;5.52;100.00
18323;BME280;9287;49.456;11.064;2023-02-03T06:40:48;98987.25;;;5.50;100.00
18323;BME280;9287;49.456;11.064;2023-02-03T06:43:16;98993.75;;;5.49;100.00
18323;BME280;9287;49.456;11.064;2023-02-03T06:45:44;98981.25;;;5.53;100.00
18323;BME280;9287;49.456;11.064;2023-02-03T06:48:12;98975.22;;;5.56;100.00
18323;BME280;9287;49.456;11.064;2023-02-03T06:50:41;98983.28;;;5.62;100.00
18323;BME280;9287;49.456;11.064;2023-02-03T06:53:10;98995.44;;;5.64;100.00
18323;BME280;9287;49.456;11.064;2023-02-03T06:55:38;99007.59;;;5.67;100.00
18323;BME280;9287;49.456;11.064;2023-02-03T06:58:06;98999.97;;;5.69;100.00
18323;BME280;9287;49.456;11.064;2023-02-03T07:00:34;98999.97;;;5.69;100.00
18323;BME280;9287;49.456;11.064;2023-02-03T07:03:01;98994.03;;;5.67;100.00
18323;BME280;9287;49.456;11.064;2023-02-03T07:05:30;98969.06;;;5.70;100.00
18323;BME280;9287;49.456;11.064;2023-02-03T07:07:58;98979.91;;;5.70;100.00
18323;BME280;9287;49.456;11.064;2023-02-03T07:10:27;98990.75;;;5.70;100.00
18323;BME280;9287;49.456;11.064;2023-02-03T07:13:01;98991.75;;;5.74;100.00
18323;BME280;9287;49.456;11.064;2023-02-03T07:15:29;98984.72;;;5.73;100.00
18323;BME280;9287;49.456;11.064;2023-02-03T07:17:56;98972.88;;;5.69;100.00
18323;BME280;9287;49.456;11.064;2023-02-03T07:20:24;98975.47;;;5.74;100.00
18323;BME280;9287;49.456;11.064;2023-02-03T07:22:55;98995.53;;;5.73;100.00
18323;BME280;9287;49.456;11.064;2023-02-03T07:25:24;98997.16;;;5.74;100.00
18323;BME280;9287;49.456;11.064;2023-02-03T07:27:53;99003.59;;;5.78;100.00
18323;BME280;9287;49.456;11.064;2023-02-03T07:30:21;99008.50;;;5.76;100.00
18323;BME280;9287;49.456;11.064;2023-02-03T07:32:50;98998.69;;;5.80;100.00
18323;BME280;9287;49.456;11.064;2023-02-03T07:35:18;99007.03;;;5.83;100.00
18323;BME280;9287;49.456;11.064;2023-02-03T07:37:46;99039.34;;;5.80;100.00
18323;BME280;9287;49.456;11.064;2023-02-03T07:40:14;99038.78;;;5.83;100.00
18323;BME280;9287;49.456;11.064;2023-02-03T07:42:42;99022.50;;;5.83;100.00
18323;BME280;9287;49.456;11.064;2023-02-03T07:45:12;99001.41;;;5.80;100.00
18323;BME280;9287;49.456;11.064;2023-02-03T07:47:41;99003.03;;;5.81;100.00
18323;BME280;9287;49.456;11.064;2023-02-03T07:50:10;99010.34;;;5.80;100.00
18323;BME280;9287;49.456;11.064;2023-02-03T07:52:38;99011.66;;;5.83;100.00
18323;BME280;9287;49.456;11.064;2023-02-03T07:55:07;99019.50;;;5.84;100.00
18323;BME280;9287;49.456;11.064;2023-02-03T07:57:35;99032.75;;;5.86;100.00
18323;BME280;9287;49.456;11.064;2023-02-03T08:00:04;99020.31;;;5.85;100.00
18323;BME280;9287;49.456;11.064;2023-02-03T08:02:33;99019.28;;;5.81;100.00
18323;BME280;9287;49.456;11.064;2023-02-03T08:05:01;99016.56;;;5.81;100.00
18323;BME280;9287;49.456;11.064;2023-02-03T08:07:28;99020.91;;;5.82;100.00
18323;BME280;9287;49.456;11.064;2023-02-03T08:09:56;99010.06;;;5.82;100.00
18323;BME280;9287;49.456;11.064;2023-02-03T08:12:24;99006.81;;;5.80;100.00
18323;BME280;9287;49.456;11.064;2023-02-03T08:14:52;98994.38;;;5.79;100.00
18323;BME280;9287;49.456;11.064;2023-02-03T08:17:19;99017.75;;;5.75;100.00
18323;BME280;9287;49.456;11.064;2023-02-03T08:19:48;99020.38;;;5.80;100.00
18323;BME280;9287;49.456;11.064;2023-02-03T08:22:16;99013.28;;;5.84;100.00
18323;BME280;9287;49.456;11.064;2023-02-03T08:24:45;99026.25;;;5.87;100.00
18323;BME280;9287;49.456;11.064;2023-02-03T08:27:16;99031.59;;;5.92;100.00
18323;BME280;9287;49.456;11.064;2023-02-03T08:29:44;99018.09;;;5.87;100.00
18323;BME280;9287;49.456;11.064;2023-02-03T08:32:14;99020.75;;;5.92;100.00
18323;BME280;9287;49.456;11.064;2023-02-03T08:34:42;99023.69;;;5.96;100.00
18323;BME280;9287;49.456;11.064;2023-02-03T08:37:13;99025.00;;;5.98;100.00
18323;BME280;9287;49.456;11.064;2023-02-03T08:39:41;99021.19;;;5.99;100.00
18323;BME280;9287;49.456;11.064;2023-02-03T08:42:09;99025.50;;;6.00;100.00
18323;BME280;9287;49.456;11.064;2023-02-03T08:44:37;99026.03;;;6.02;100.00
18323;BME280;9287;49.456;11.064;2023-02-03T08:47:06;99033.06;;;6.03;100.00
18323;BME280;9287;49.456;11.064;2023-02-03T08:49:34;99023.00;;;6.04;100.00
18323;BME280;9287;49.456;11.064;2023-02-03T08:52:05;99013.56;;;6.01;100.00
18323;BME280;9287;49.456;11.064;2023-02-03T08:54:35;99014.59;;;6.05;100.00
18323;BME280;9287;49.456;11.064;2023-02-03T08:57:02;99009.97;;;6.06;100.00
18323;BME280;9287;49.456;11.064;2023-02-03T08:59:30;99004.84;;;6.04;100.00
18323;BME280;9287;49.456;11.064;2023-02-03T09:02:01;99014.59;;;6.05;100.00
18323;BME280;9287;49.456;11.064;2023-02-03T09:04:30;99010.25;;;6.04;100.00
18323;BME280;9287;49.456;11.064;2023-02-03T09:07:00;99018.41;;;6.04;100.00
18323;BME280;9287;49.456;11.064;2023-02-03T09:09:30;99010.75;;;6.06;100.00
18323;BME280;9287;49.456;11.064;2023-02-03T09:12:00;98997.69;;;6.08;100.00
18323;BME280;9287;49.456;11.064;2023-02-03T09:14:31;98990.66;;;6.07;100.00
18323;BME280;9287;49.456;11.064;2023-02-03T09:17:00;99006.34;;;6.10;100.00
18323;BME280;9287;49.456;11.064;2023-02-03T09:19:28;99004.13;;;6.12;100.00
18323;BME280;9287;49.456;11.064;2023-02-03T09:21:56;98989.47;;;6.13;100.00
18323;BME280;9287;49.456;11.064;2023-02-03T09:24:24;98994.31;;;6.16;100.00
18323;BME280;9287;49.456;11.064;2023-02-03T09:26:52;98992.69;;;6.15;100.00
18323;BME280;9287;49.456;11.064;2023-02-03T09:29:21;98987.47;;;6.19;100.00
18323;BME280;9287;49.456;11.064;2023-02-03T09:31:49;98989.59;;;6.22;100.00
18323;BME280;9287;49.456;11.064;2023-02-03T09:34:19;98987.06;;;6.25;100.00
18323;BME280;9287;49.456;11.064;2023-02-03T09:36:47;98977.84;;;6.26;100.00
18323;BME280;9287;49.456;11.064;2023-02-03T09:39:15;98975.03;;;6.32;100.00
18323;BME280;9287;49.456;11.064;2023-02-03T09:44:54;98974.44;;;6.35;100.00
18323;BME280;9287;49.456;11.064;2023-02-03T09:47:28;98969.81;;;6.35;100.00
18323;BME280;9287;49.456;11.064;2023-02-03T09:49:57;98963.00;;;6.38;100.00
18323;BME280;9287;49.456;11.064;2023-02-03T09:52:28;98959.78;;;6.36;100.00
18323;BME280;9287;49.456;11.064;2023-02-03T09:55:02;98967.78;;;6.41;100.00
18323;BME280;9287;49.456;11.064;2023-02-03T09:57:35;98955.53;;;6.43;100.00
18323;BME280;9287;49.456;11.064;2023-02-03T10:00:15;98953.13;;;6.42;100.00
18323;BME280;9287;49.456;11.064;2023-02-03T10:02:55;98958.56;;;6.42;100.00
18323;BME280;9287;49.456;11.064;2023-02-03T10:05:29;98960.16;;;6.43;100.00
18323;BME280;9287;49.456;11.064;2023-02-03T10:08:06;98962.56;;;6.44;100.00
18323;BME280;9287;49.456;11.064;2023-02-03T10:10:40;98959.56;;;6.46;100.00
18323;BME280;9287;49.456;11.064;2023-02-03T10:13:21;98963.88;;;6.47;100.00
18323;BME280;9287;49.456;11.064;2023-02-03T10:16:17;98965.19;;;6.49;100.00
18323;BME280;9287;49.456;11.064;2023-02-03T10:18:52;98958.88;;;6.54;100.00
18323;BME280;9287;49.456;11.064;2023-02-03T10:21:30;98958.56;;;6.55;100.00
18323;BME280;9287;49.456;11.064;2023-02-03T10:24:03;98949.03;;;6.58;100.00
18323;BME280;9287;49.456;11.064;2023-02-03T10:26:33;98949.50;;;6.60;100.00
18323;BME280;9287;49.456;11.064;2023-02-03T10:29:05;98945.91;;;6.64;100.00
18323;BME280;9287;49.456;11.064;2023-02-03T10:31:36;98949.50;;;6.60;100.00
18323;BME280;9287;49.456;11.064;2023-02-03T10:34:10;98938.06;;;6.63;100.00
18323;BME280;9287;49.456;11.064;2023-02-03T10:36:50;98916.34;;;6.63;100.00
18323;BME280;9287;49.456;11.064;2023-02-03T10:39:26;98933.13;;;6.65;100.00
18323;BME280;9287;49.456;11.064;2023-02-03T10:41:57;98919.06;;;6.63;100.00
18323;BME280;9287;49.456;11.064;2023-02-03T10:44:31;98910.91;;;6.63;100.00
18323;BME280;9287;49.456;11.064;2023-02-03T10:47:14;98893.53;;;6.64;100.00
18323;BME280;9287;49.456;11.064;2023-02-03T10:49:44;98889.00;;;6.59;100.00
18323;BME280;9287;49.456;11.064;2023-02-03T10:52:28;98913.13;;;6.61;100.00
18323;BME280;9287;49.456;11.064;2023-02-03T10:54:57;98906.00;;;6.65;100.00
18323;BME280;9287;49.456;11.064;2023-02-03T10:57:28;98898.84;;;6.69;100.00
18323;BME280;9287;49.456;11.064;2023-02-03T11:00:06;98894.81;;;6.67;100.00
18323;BME280;9287;49.456;11.064;2023-02-03T11:02:36;98884.78;;;6.67;100.00
18323;BME280;9287;49.456;11.064;2023-02-03T11:05:17;98894.03;;;6.66;100.00
18323;BME280;9287;49.456;11.064;2023-02-03T11:07:46;98895.03;;;6.70;100.00
18323;BME280;9287;49.456;11.064;2023-02-03T11:10:28;98883.56;;;6.73;100.00
18323;BME280;9287;49.456;11.064;2023-02-03T11:13:18;98861.06;;;6.73;100.00
18323;BME280;9287;49.456;11.064;2023-02-03T11:15:58;98858.63;;;6.71;100.00
18323;BME280;9287;49.456;11.064;2023-02-03T11:18:35;98851.00;;;6.73;100.00
18323;BME280;9287;49.456;11.064;2023-02-03T11:21:13;98818.59;;;6.77;100.00
18323;BME280;9287;49.456;11.064;2023-02-03T11:23:47;98832.97;;;6.77;100.00
18323;BME280;9287;49.456;11.064;2023-02-03T11:26:19;98821.50;;;6.80;100.00
18323;BME280;9287;49.456;11.064;2023-02-03T11:28:49;98816.56;;;6.82;100.00
18323;BME280;9287;49.456;11.064;2023-02-03T11:31:21;98819.78;;;6.84;100.00
18323;BME280;9287;49.456;11.064;2023-02-03T11:33:54;98814.34;;;6.84;100.00
18323;BME280;9287;49.456;11.064;2023-02-03T11:36:25;98799.06;;;6.88;100.00
18323;BME280;9287;49.456;11.064;2023-02-03T11:39:09;98819.06;;;6.92;100.00
18323;BME280;9287;49.456;11.064;2023-02-03T11:41:38;98816.34;;;6.92;100.00
18323;BME280;9287;49.456;11.064;2023-02-03T11:44:10;98799.25;;;6.92;100.00
18323;BME280;9287;49.456;11.064;2023-02-03T11:46:39;98810.72;;;6.89;100.00
18323;BME280;9287;49.456;11.064;2023-02-03T11:49:22;98806.72;;;6.86;100.00
18323;BME280;9287;49.456;11.064;2023-02-03T11:52:01;98775.13;;;6.90;100.00
18323;BME280;9287;49.456;11.064;2023-02-03T11:54:39;98812.94;;;6.87;100.00
18323;BME280;9287;49.456;11.064;2023-02-03T11:57:26;98809.13;;;6.88;100.00
18323;BME280;9287;49.456;11.064;2023-02-03T12:00:07;98798.06;;;6.84;100.00
18323;BME280;9287;49.456;11.064;2023-02-03T12:02:51;98820.59;;;6.85;100.00
18323;BME280;9287;49.456;11.064;2023-02-03T12:05:43;98785.00;;;6.86;100.00
18323;BME280;9287;49.456;11.064;2023-02-03T12:08:24;98788.19;;;6.88;100.00
18323;BME280;9287;49.456;11.064;2023-02-03T12:11:03;98791.84;;;6.84;100.00
18323;BME280;9287;49.456;11.064;2023-02-03T12:13:48;98803.50;;;6.84;100.00
18323;BME280;9287;49.456;11.064;2023-02-03T12:16:40;98817.06;;;6.84;100.00
18323;BME280;9287;49.456;11.064;2023-02-03T12:19:20;98820.88;;;6.83;100.00
18323;BME280;9287;49.456;11.064;2023-02-03T12:21:59;98806.31;;;6.79;100.00
18323;BME280;9287;49.456;11.064;2023-02-03T12:24:37;98786.81;;;6.77;100.00
18323;BME280;9287;49.456;11.064;2023-02-03T12:27:22;98803.09;;;6.77;100.00
18323;BME280;9287;49.456;11.064;2023-02-03T12:29:56;98795.78;;;6.78;100.00
18323;BME280;9287;49.456;11.064;2023-02-03T12:32:29;98789.06;;;6.75;100.00
18323;BME280;9287;49.456;11.064;2023-02-03T12:35:11;98773.56;;;6.76;100.00
18323;BME280;9287;49.456;11.064;2023-02-03T12:37:46;98796.06;;;6.76;100.00
18323;BME280;9287;49.456;11.064;2023-02-03T12:40:21;98778.22;;;6.75;100.00
18323;BME280;9287;49.456;11.064;2023-02-03T12:42:53;98769.56;;;6.73;100.00
18323;BME280;9287;49.456;11.064;2023-02-03T12:45:24;98790.78;;;6.71;100.00
18323;BME280;9287;49.456;11.064;2023-02-03T12:47:55;98759.31;;;6.70;100.00
18323;BME280;9287;49.456;11.064;2023-02-03T12:50:29;98766.34;;;6.71;100.00
18323;BME280;9287;49.456;11.064;2023-02-03T12:53:02;98761.53;;;6.68;100.00
18323;BME280;9287;49.456;11.064;2023-02-03T12:55:34;98755.13;;;6.64;100.00
18323;BME280;9287;49.456;11.064;2023-02-03T12:58:05;98768.78;;;6.59;100.00
18323;BME280;9287;49.456;11.064;2023-02-03T13:00:39;98765.13;;;6.55;100.00
18323;BME280;9287;49.456;11.064;2023-02-03T13:03:15;98748.34;;;6.53;100.00
18323;BME280;9287;49.456;11.064;2023-02-03T13:05:49;98745.63;;;6.53;100.00
18323;BME280;9287;49.456;11.064;2023-02-03T13:08:28;98756.78;;;6.51;100.00
18323;BME280;9287;49.456;11.064;2023-02-03T13:11:06;98773.34;;;6.50;100.00
18323;BME280;9287;49.456;11.064;2023-02-03T13:13:39;98767.44;;;6.48;100.00
18323;BME280;9287;49.456;11.064;2023-02-03T13:16:10;98718.41;;;6.44;100.00
18323;BME280;9287;49.456;11.064;2023-02-03T13:18:43;98733.28;;;6.47;100.00
18323;BME280;9287;49.456;11.064;2023-02-03T13:21:12;98736.47;;;6.49;100.00
18323;BME280;9287;49.456;11.064;2023-02-03T13:23:42;98733.28;;;6.47;100.00
18323;BME280;9287;49.456;11.064;2023-02-03T13:26:42;98751.16;;;6.48;100.00
18323;BME280;9287;49.456;11.064;2023-02-03T13:32:19;98731.66;;;6.46;100.00